Cleveland, Ohio
Current Conditions -  °F | °C
As of 1:53 AM on Saturday 29 Nov 2014 (Local Time) from KBKL Reporting Station
Overcast Overcast  
Wind Chill: 22°   Ceiling: 7000
Heat Index: 31°   Visibility: 10mi
Dew Point: 19°   Wind: 12mph
Humidity: 61%   Direction: 160°SSE
Pressure: 30.1"   Gusts: NA
Location:  41.5°N, 81.69°W
Report Text: KBKL 290653Z AUTO 16010KT 10SM OVC070 M01/M07 A3010 RMK AO2 SLP200 T10061072
Loading
Personal Weather Stations






























Interactive Weather Map New forecast layout! Learn more

10-Day Weather Forecast

Advertisements
Track Severe Weather on mobile